Time;durP1;ratioP1;P1;durP2;ratioP2;P2;SDS_P1;SDS_P2;PMS_P1;PMS_P2;Temp;Humidity;BMP_temperature;BMP_pressure;BME280_temperature;BME280_humidity;BME280_pressure;Samples;Min_cycle;Max_cycle;Signal;HPM_P1;HPM_P2
2021/12/02 00:01:16;;;;;;;17.10;2.87;;;4.90;1.00;;;;;;4941563;29;20259;-60
2021/12/02 00:03:45;;;;;;;10.73;2.83;;;4.80;1.00;;;;;;4941163;29;20305;-60
2021/12/02 00:06:15;;;;;;;12.67;2.17;;;4.90;1.00;;;;;;4923328;29;20286;-59
2021/12/02 00:08:42;;;;;;;6.97;2.50;;;4.90;1.00;;;;;;4929277;29;20207;-59
2021/12/02 00:11:10;;;;;;;9.23;2.27;;;4.90;1.00;;;;;;4940413;29;20199;-60
2021/12/02 00:21:26;;;;;;;7.23;2.30;;;5.10;99.90;;;;;;4939335;29;20590;-60
2021/12/02 00:24:00;;;;;;;9.20;2.50;;;5.10;99.90;;;;;;4938816;29;20257;-60
2021/12/02 00:26:28;;;;;;;8.00;1.83;;;5.10;99.90;;;;;;4938451;28;20199;-60
2021/12/02 00:28:57;;;;;;;9.43;2.40;;;5.00;99.90;;;;;;4923555;29;20216;-60
2021/12/02 00:31:30;;;;;;;10.07;2.30;;;4.90;99.90;;;;;;4926195;29;20259;-61
2021/12/02 00:34:00;;;;;;;11.20;2.67;;;4.90;99.90;;;;;;4942762;29;20287;-60
2021/12/02 00:36:30;;;;;;;8.70;2.90;;;4.90;99.90;;;;;;4941457;29;20210;-60
2021/12/02 00:39:00;;;;;;;9.17;2.40;;;4.90;1.00;;;;;;4941597;29;20253;-61
2021/12/02 00:41:28;;;;;;;16.67;3.00;;;4.90;99.90;;;;;;4941594;29;20318;-61
2021/12/02 00:43:57;;;;;;;6.77;2.57;;;4.90;99.90;;;;;;4940557;29;20737;-60
2021/12/02 00:46:26;;;;;;;11.17;2.53;;;5.00;99.90;;;;;;4920948;29;20298;-61
2021/12/02 00:48:54;;;;;;;9.17;2.23;;;5.00;99.90;;;;;;4938652;29;20226;-61
2021/12/02 00:51:21;;;;;;;23.33;3.43;;;4.90;99.90;;;;;;4938761;29;20581;-61
2021/12/02 00:53:52;;;;;;;8.13;2.10;;;4.90;99.90;;;;;;4938302;29;20250;-61
2021/12/02 00:56:24;;;;;;;9.13;2.50;;;4.90;99.90;;;;;;4936521;29;20227;-60
2021/12/02 00:58:53;;;;;;;11.10;2.77;;;4.90;1.00;;;;;;4939987;29;20210;-61
2021/12/02 01:01:24;;;;;;;11.60;3.20;;;4.90;1.00;;;;;;4908146;29;20226;-61
2021/12/02 01:03:57;;;;;;;13.20;3.30;;;5.00;1.00;;;;;;4939860;29;20314;-60
2021/12/02 01:06:25;;;;;;;14.33;3.47;;;4.90;1.00;;;;;;4925478;29;20226;-60
2021/12/02 01:08:53;;;;;;;15.50;3.90;;;4.90;1.00;;;;;;4921472;29;20286;-61
2021/12/02 01:11:21;;;;;;;15.87;4.20;;;4.90;1.00;;;;;;4939122;29;20203;-61
2021/12/02 01:13:48;;;;;;;13.50;2.97;;;5.00;1.00;;;;;;4923851;29;20202;-61
2021/12/02 01:16:17;;;;;;;12.73;2.73;;;5.00;1.00;;;;;;4941406;29;20203;-61
2021/12/02 01:18:45;;;;;;;14.23;3.80;;;5.00;1.00;;;;;;4924520;29;20548;-60
2021/12/02 01:21:19;;;;;;;12.73;3.03;;;4.90;1.00;;;;;;4922527;29;20200;-61
2021/12/02 01:23:51;;;;;;;11.73;3.00;;;4.90;1.00;;;;;;4921424;29;20223;-61
2021/12/02 01:26:19;;;;;;;11.60;3.00;;;4.90;1.00;;;;;;4928794;29;20602;-60
2021/12/02 01:28:49;;;;;;;11.03;2.60;;;4.80;1.00;;;;;;4938412;28;20238;-61
2021/12/02 01:31:17;;;;;;;12.47;2.97;;;4.80;1.00;;;;;;4937049;29;20195;-60
2021/12/02 01:33:46;;;;;;;15.30;3.70;;;4.70;1.00;;;;;;4923783;29;23073;-60
2021/12/02 01:36:13;;;;;;;16.37;3.40;;;4.70;1.00;;;;;;4926402;29;20206;-60
2021/12/02 01:38:41;;;;;;;13.47;2.87;;;4.80;1.00;;;;;;4938731;29;20222;-60
2021/12/02 01:41:08;;;;;;;13.00;3.07;;;4.80;99.90;;;;;;4922561;29;20239;-60
2021/12/02 01:43:45;;;;;;;11.53;3.00;;;4.70;1.00;;;;;;4929620;29;20203;-60
2021/12/02 01:46:15;;;;;;;16.70;2.70;;;4.70;1.00;;;;;;4940306;29;20202;-60
2021/12/02 01:48:43;;;;;;;9.30;2.80;;;4.70;1.00;;;;;;4928318;29;20297;-60
2021/12/02 01:51:11;;;;;;;11.23;2.93;;;4.70;1.00;;;;;;4923853;29;20190;-60
2021/12/02 01:53:40;;;;;;;11.00;3.27;;;4.60;1.00;;;;;;4929805;29;20242;-60
2021/12/02 01:56:15;;;;;;;15.47;3.27;;;4.70;1.00;;;;;;4925804;29;20262;-60
2021/12/02 01:58:50;;;;;;;15.23;3.03;;;4.70;99.90;;;;;;4919157;29;20207;-60
2021/12/02 02:01:23;;;;;;;12.10;3.13;;;4.70;99.90;;;;;;4938736;29;20223;-60
2021/12/02 02:03:52;;;;;;;13.10;3.40;;;4.70;99.90;;;;;;4939496;29;20243;-60
2021/12/02 02:06:40;;;;;;;18.10;5.60;;;4.60;99.90;;;;;;4924268;29;20602;-59
2021/12/02 02:09:09;;;;;;;21.23;5.57;;;4.60;1.00;;;;;;4924076;29;20679;-60
2021/12/02 02:11:36;;;;;;;23.13;5.43;;;4.60;1.00;;;;;;4923049;29;20313;-60
2021/12/02 02:14:06;;;;;;;13.10;3.10;;;4.50;1.00;;;;;;4935945;29;20235;-59
2021/12/02 02:16:33;;;;;;;13.17;4.50;;;4.60;1.00;;;;;;4939910;29;20207;-59
2021/12/02 02:19:00;;;;;;;23.13;7.97;;;4.50;1.00;;;;;;4937084;29;20359;-60
2021/12/02 02:21:28;;;;;;;16.13;4.73;;;4.50;1.00;;;;;;4938089;29;20294;-59
2021/12/02 02:23:58;;;;;;;15.50;3.50;;;4.50;1.00;;;;;;4922408;29;20303;-59
2021/12/02 02:26:28;;;;;;;14.70;6.10;;;4.50;1.00;;;;;;4923315;29;20262;-60
2021/12/02 02:28:56;;;;;;;15.83;5.20;;;4.60;1.00;;;;;;4932955;29;20239;-60
2021/12/02 02:31:25;;;;;;;16.83;4.53;;;4.60;1.00;;;;;;4922271;29;20190;-60
2021/12/02 02:33:53;;;;;;;13.67;2.90;;;4.60;1.00;;;;;;4908651;29;20943;-60
2021/12/02 02:36:22;;;;;;;10.20;3.30;;;4.70;1.00;;;;;;4936516;29;20317;-60
2021/12/02 02:38:56;;;;;;;10.23;3.00;;;4.70;1.00;;;;;;4939908;29;20203;-60
2021/12/02 02:41:34;;;;;;;12.07;3.50;;;4.70;99.90;;;;;;4939298;29;20243;-60
2021/12/02 02:44:03;;;;;;;14.67;3.17;;;4.80;99.90;;;;;;4937149;29;20218;-60
2021/12/02 02:46:33;;;;;;;11.67;2.53;;;4.80;99.90;;;;;;4937908;29;20725;-60
2021/12/02 02:49:04;;;;;;;17.20;2.87;;;4.80;99.90;;;;;;4927295;28;20536;-61
2021/12/02 02:51:32;;;;;;;16.90;3.57;;;4.80;99.90;;;;;;4940593;29;20191;-60
2021/12/02 02:54:04;;;;;;;13.40;3.10;;;4.80;99.90;;;;;;4931453;29;20206;-60
2021/12/02 02:56:35;;;;;;;10.13;2.93;;;4.80;99.90;;;;;;4941726;29;20188;-60
2021/12/02 02:59:13;;;;;;;14.30;3.93;;;4.80;99.90;;;;;;4940301;29;20218;-61
2021/12/02 03:09:23;;;;;;;14.80;4.67;;;4.90;99.90;;;;;;4929148;29;20219;-60
2021/12/02 03:11:55;;;;;;;8.23;3.10;;;4.80;99.90;;;;;;4926422;29;20207;-60
2021/12/02 03:14:37;;;;;;;16.57;3.23;;;4.80;1.00;;;;;;4921409;29;20286;-61
2021/12/02 03:17:04;;;;;;;6.93;3.27;;;4.80;1.00;;;;;;4940894;29;20198;-61
2021/12/02 03:19:34;;;;;;;13.90;2.90;;;4.90;1.00;;;;;;4940403;29;20256;-61
2021/12/02 03:22:01;;;;;;;13.67;3.23;;;4.80;1.00;;;;;;4939372;29;20214;-61
2021/12/02 03:24:28;;;;;;;13.70;3.67;;;4.80;1.00;;;;;;4919820;29;20231;-60
2021/12/02 03:26:55;;;;;;;10.10;3.07;;;4.80;1.00;;;;;;4940808;28;20211;-60
2021/12/02 03:29:22;;;;;;;15.43;3.40;;;4.80;1.00;;;;;;4935303;29;20216;-60
2021/12/02 03:31:49;;;;;;;12.53;3.37;;;4.70;99.90;;;;;;4937539;29;20701;-61
2021/12/02 03:34:17;;;;;;;11.20;3.60;;;4.70;1.00;;;;;;4907016;29;20258;-60
2021/12/02 03:36:44;;;;;;;12.40;4.50;;;4.60;1.00;;;;;;4943100;29;20195;-60
2021/12/02 03:39:11;;;;;;;6.27;1.97;;;4.60;1.00;;;;;;4939191;29;20675;-60
2021/12/02 03:41:40;;;;;;;8.20;2.50;;;4.60;1.00;;;;;;4940628;29;20202;-60
2021/12/02 03:44:08;;;;;;;6.33;2.73;;;4.50;1.00;;;;;;4923391;29;20207;-60
2021/12/02 03:46:36;;;;;;;7.63;2.60;;;4.50;1.00;;;;;;4925306;29;20215;-59
2021/12/02 03:49:03;;;;;;;7.90;2.30;;;4.50;1.00;;;;;;4931172;29;20269;-60
2021/12/02 03:51:31;;;;;;;5.10;2.23;;;4.50;1.00;;;;;;4940630;29;20808;-60
2021/12/02 03:53:58;;;;;;;7.23;1.97;;;4.40;1.00;;;;;;4926500;29;20674;-60
2021/12/02 03:56:26;;;;;;;9.70;2.30;;;4.50;1.00;;;;;;4938715;29;20651;-60
2021/12/02 03:58:53;;;;;;;5.83;1.83;;;4.40;1.00;;;;;;4931621;29;20217;-60
2021/12/02 04:01:21;;;;;;;5.67;1.70;;;4.40;1.00;;;;;;4939151;28;20203;-60
2021/12/02 04:03:50;;;;;;;6.27;2.00;;;4.30;1.00;;;;;;4939828;29;20668;-59
2021/12/02 04:06:17;;;;;;;12.30;2.27;;;4.30;1.00;;;;;;4941309;29;20203;-60
2021/12/02 04:08:53;;;;;;;9.77;2.80;;;4.20;1.00;;;;;;4926214;29;20343;-60
2021/12/02 04:16:23;;;;;;;5.87;2.60;;;3.90;1.00;;;;;;4923134;29;20207;-60
2021/12/02 04:18:50;;;;;;;9.17;1.83;;;3.90;1.00;;;;;;4939656;29;20241;-60
2021/12/02 04:21:18;;;;;;;6.97;1.90;;;3.90;1.00;;;;;;4940486;29;20757;-60
2021/12/02 04:23:45;;;;;;;4.40;2.17;;;3.80;1.00;;;;;;4939308;29;20195;-60
2021/12/02 04:26:12;;;;;;;8.43;2.00;;;3.70;1.00;;;;;;4908736;29;20293;-60
2021/12/02 04:28:39;;;;;;;4.30;1.63;;;3.70;9.70;;;;;;4939080;28;20211;-60
2021/12/02 04:31:06;;;;;;;3.67;1.70;;;3.80;1.00;;;;;;4935346;29;20257;-59
2021/12/02 04:33:33;;;;;;;3.63;1.40;;;3.80;1.00;;;;;;4940928;29;20196;-60
2021/12/02 04:36:00;;;;;;;5.80;1.53;;;3.90;1.00;;;;;;4940115;29;20364;-59
2021/12/02 04:38:27;;;;;;;8.20;1.80;;;4.00;1.00;;;;;;4924086;29;20974;-60
2021/12/02 04:40:56;;;;;;;6.23;1.77;;;4.00;1.00;;;;;;4925250;29;20678;-59
2021/12/02 04:43:23;;;;;;;6.00;1.77;;;3.90;1.00;;;;;;4938301;29;20254;-60
2021/12/02 04:45:50;;;;;;;5.40;2.03;;;3.80;1.00;;;;;;4936065;29;20203;-60
2021/12/02 04:48:18;;;;;;;2.80;1.33;;;3.80;1.00;;;;;;4924583;29;20205;-60
2021/12/02 04:50:46;;;;;;;7.07;1.77;;;3.60;1.00;;;;;;4922400;29;20242;-60
2021/12/02 04:53:13;;;;;;;5.37;1.73;;;3.60;17.90;;;;;;4941239;29;20203;-60
2021/12/02 04:55:41;;;;;;;3.37;1.50;;;3.60;91.60;;;;;;4922609;29;20203;-60
2021/12/02 04:58:08;;;;;;;4.53;1.90;;;3.50;99.90;;;;;;4922530;28;20200;-60
2021/12/02 05:00:35;;;;;;;4.50;1.70;;;3.50;99.90;;;;;;4938855;29;20199;-60
2021/12/02 05:03:03;;;;;;;4.30;2.03;;;3.50;99.90;;;;;;4940430;29;20216;-60
2021/12/02 05:05:31;;;;;;;3.63;2.00;;;3.40;99.90;;;;;;4918661;29;20208;-60
2021/12/02 05:08:00;;;;;;;6.43;1.80;;;3.40;99.90;;;;;;4917646;29;20259;-60
2021/12/02 05:10:27;;;;;;;5.10;2.33;;;3.60;99.90;;;;;;4918782;29;20703;-61
2021/12/02 05:12:54;;;;;;;7.53;2.03;;;3.60;99.90;;;;;;4919217;29;20204;-60
2021/12/02 05:15:21;;;;;;;5.60;2.23;;;3.60;99.90;;;;;;4921331;29;20528;-60
2021/12/02 05:17:48;;;;;;;5.53;1.67;;;3.50;99.90;;;;;;4909944;29;20204;-60
2021/12/02 05:20:16;;;;;;;4.83;2.20;;;3.40;99.90;;;;;;4918983;29;20258;-60
2021/12/02 05:22:43;;;;;;;3.90;2.10;;;3.30;99.90;;;;;;4914081;29;20342;-60
2021/12/02 05:25:10;;;;;;;4.87;2.37;;;3.20;99.90;;;;;;4919956;29;20298;-61
2021/12/02 05:27:37;;;;;;;9.50;2.53;;;3.20;1.00;;;;;;4920851;29;20270;-61
2021/12/02 05:30:05;;;;;;;4.50;2.43;;;3.10;1.00;;;;;;4900700;29;20735;-61
2021/12/02 05:32:33;;;;;;;4.37;2.17;;;3.00;1.00;;;;;;4913506;29;20370;-60
2021/12/02 05:35:00;;;;;;;5.43;2.40;;;2.90;1.00;;;;;;4912957;29;20730;-61
2021/12/02 05:37:27;;;;;;;5.20;2.47;;;2.90;1.00;;;;;;4897979;29;20255;-61
2021/12/02 05:39:54;;;;;;;5.90;2.50;;;3.00;1.00;;;;;;4925417;29;20257;-61
2021/12/02 05:42:21;;;;;;;5.20;2.53;;;2.90;1.00;;;;;;4915341;29;20318;-61
2021/12/02 05:44:52;;;;;;;4.93;2.93;;;2.80;1.00;;;;;;4916004;29;20692;-61
2021/12/02 05:47:19;;;;;;;5.00;3.20;;;2.80;1.00;;;;;;4914307;29;20204;-61
2021/12/02 05:49:46;;;;;;;6.97;3.00;;;2.80;43.70;;;;;;4915579;29;20490;-61
2021/12/02 05:52:19;;;;;;;11.30;5.43;;;2.80;98.40;;;;;;4916848;29;20247;-61
2021/12/02 05:54:46;;;;;;;12.40;5.33;;;2.90;99.90;;;;;;4917644;29;20274;-61
2021/12/02 05:57:13;;;;;;;10.50;5.90;;;2.80;99.90;;;;;;4914450;29;20223;-60
2021/12/02 05:59:40;;;;;;;10.60;6.27;;;2.90;1.00;;;;;;4915403;29;20211;-61
2021/12/02 06:02:08;;;;;;;9.40;5.97;;;3.10;1.00;;;;;;4914818;29;20200;-61
2021/12/02 06:04:38;;;;;;;8.63;6.00;;;3.20;99.90;;;;;;4926537;29;20285;-61
2021/12/02 06:07:05;;;;;;;9.20;6.90;;;3.30;99.90;;;;;;4935650;29;20198;-60
2021/12/02 06:09:33;;;;;;;14.83;11.00;;;3.40;99.90;;;;;;4920803;29;20227;-60
2021/12/02 06:12:00;;;;;;;14.57;10.07;;;3.40;70.40;;;;;;4921319;29;20209;-60
2021/12/02 06:14:27;;;;;;;8.97;6.57;;;3.50;1.00;;;;;;4922913;29;20281;-60
2021/12/02 06:16:54;;;;;;;8.60;6.93;;;3.50;1.00;;;;;;4932829;29;20226;-60
2021/12/02 06:19:21;;;;;;;11.97;7.50;;;3.60;1.00;;;;;;4930411;29;20192;-60
2021/12/02 06:21:50;;;;;;;8.50;6.20;;;3.60;1.00;;;;;;4932779;29;20267;-60
2021/12/02 06:24:18;;;;;;;11.20;6.77;;;3.70;1.00;;;;;;4933313;28;20206;-60
2021/12/02 06:26:44;;;;;;;12.60;6.60;;;3.70;1.00;;;;;;4923073;29;20249;-61
2021/12/02 06:29:11;;;;;;;11.17;6.57;;;3.70;1.00;;;;;;4928021;29;20215;-61
2021/12/02 06:31:38;;;;;;;8.83;6.73;;;3.70;1.00;;;;;;4932637;29;20278;-61
2021/12/02 06:34:07;;;;;;;7.23;5.70;;;3.80;1.00;;;;;;4926713;29;20208;-61
2021/12/02 06:36:36;;;;;;;12.53;6.20;;;3.70;1.00;;;;;;4917603;29;20204;-61
2021/12/02 06:39:04;;;;;;;6.40;4.30;;;3.80;1.00;;;;;;4917683;29;20206;-61
2021/12/02 06:41:32;;;;;;;8.50;4.43;;;3.80;99.90;;;;;;4943107;29;20204;-61
2021/12/02 06:44:00;;;;;;;9.37;4.33;;;3.80;99.90;;;;;;4944146;29;20210;-61
2021/12/02 06:46:29;;;;;;;7.83;4.00;;;3.80;99.90;;;;;;4924502;29;20195;-61
2021/12/02 06:48:56;;;;;;;8.23;4.33;;;3.80;99.90;;;;;;4943512;29;20686;-61
2021/12/02 06:51:23;;;;;;;7.97;4.40;;;3.80;54.20;;;;;;4927136;29;20219;-60
2021/12/02 06:53:50;;;;;;;5.20;4.10;;;3.70;47.60;;;;;;4926640;29;20730;-60
2021/12/02 06:56:19;;;;;;;8.97;4.33;;;3.60;99.90;;;;;;4942287;29;20646;-60
2021/12/02 06:58:46;;;;;;;6.33;3.73;;;3.60;99.90;;;;;;4934770;29;20203;-61
2021/12/02 07:01:13;;;;;;;9.63;4.17;;;3.70;99.90;;;;;;4943214;29;20739;-60
2021/12/02 07:03:41;;;;;;;5.77;4.40;;;3.70;87.30;;;;;;4926945;29;21089;-60
2021/12/02 07:06:08;;;;;;;5.67;3.87;;;3.70;90.00;;;;;;4943731;29;21130;-61
2021/12/02 07:08:35;;;;;;;4.77;3.40;;;3.70;49.20;;;;;;4942182;29;20235;-60
2021/12/02 07:11:05;;;;;;;6.13;4.13;;;3.80;55.60;;;;;;4943026;29;20220;-60
2021/12/02 07:13:33;;;;;;;7.77;4.10;;;3.80;1.00;;;;;;4939794;29;20210;-61
2021/12/02 07:16:01;;;;;;;4.50;3.67;;;3.80;1.00;;;;;;4930955;29;20262;-60
2021/12/02 07:18:28;;;;;;;7.80;3.93;;;3.70;1.00;;;;;;4927236;29;20195;-60
2021/12/02 07:20:55;;;;;;;6.37;4.07;;;3.80;1.00;;;;;;4942460;29;20242;-60
2021/12/02 07:23:22;;;;;;;4.77;3.30;;;3.80;1.00;;;;;;4943233;29;20226;-60
2021/12/02 07:25:50;;;;;;;6.07;3.83;;;3.80;1.00;;;;;;4942018;29;20211;-61
2021/12/02 07:28:18;;;;;;;5.50;3.63;;;3.80;1.00;;;;;;4923092;29;20249;-60
2021/12/02 07:30:52;;;;;;;5.37;3.13;;;3.80;1.00;;;;;;4914090;29;20306;-60
2021/12/02 07:33:20;;;;;;;3.87;2.77;;;3.80;1.00;;;;;;4922698;29;20680;-61
2021/12/02 07:35:48;;;;;;;6.50;3.00;;;3.90;1.00;;;;;;4934559;28;20254;-60
2021/12/02 07:38:17;;;;;;;5.10;3.03;;;3.90;1.00;;;;;;4933089;29;20921;-60
2021/12/02 07:40:44;;;;;;;5.27;3.43;;;3.90;1.00;;;;;;4937418;29;20276;-60
2021/12/02 07:43:11;;;;;;;9.03;3.90;;;3.90;1.00;;;;;;4935896;28;20612;-61
2021/12/02 07:45:38;;;;;;;6.17;3.10;;;3.90;1.00;;;;;;4921991;29;20200;-61
2021/12/02 07:48:06;;;;;;;7.60;3.67;;;3.90;1.00;;;;;;4935171;28;20207;-60
2021/12/02 07:50:36;;;;;;;8.23;3.53;;;3.90;1.00;;;;;;4903239;29;20247;-60
2021/12/02 07:53:06;;;;;;;7.43;3.77;;;3.90;1.00;;;;;;4933360;29;20206;-60
2021/12/02 07:55:39;;;;;;;7.33;3.27;;;3.90;1.00;;;;;;4928804;29;20194;-60
2021/12/02 07:58:09;;;;;;;5.50;3.47;;;3.90;1.00;;;;;;4922683;29;20187;-61
2021/12/02 08:00:36;;;;;;;4.47;3.00;;;3.90;1.00;;;;;;4941586;29;20206;-60
2021/12/02 08:03:08;;;;;;;9.07;3.30;;;3.90;1.00;;;;;;4912005;29;20200;-60
2021/12/02 08:05:36;;;;;;;5.43;3.13;;;3.90;1.00;;;;;;4940624;28;20931;-61
2021/12/02 08:08:03;;;;;;;6.80;3.10;;;3.90;1.00;;;;;;4922244;28;20261;-61
2021/12/02 08:10:30;;;;;;;5.37;4.10;;;3.90;1.00;;;;;;4919305;28;20266;-60
2021/12/02 08:12:59;;;;;;;4.73;3.83;;;4.00;1.00;;;;;;4936907;28;20207;-60
2021/12/02 08:15:28;;;;;;;4.33;2.47;;;4.10;1.00;;;;;;4920879;28;20211;-60
2021/12/02 08:17:57;;;;;;;4.77;2.73;;;4.10;1.00;;;;;;4937688;28;20278;-60
2021/12/02 08:20:26;;;;;;;5.20;2.90;;;4.20;1.00;;;;;;4925439;28;20798;-60
2021/12/02 08:22:53;;;;;;;4.50;2.50;;;4.40;1.00;;;;;;4923019;28;21082;-60
2021/12/02 08:25:21;;;;;;;4.13;2.47;;;4.60;99.90;;;;;;4934596;28;20211;-60
2021/12/02 08:27:50;;;;;;;4.67;2.50;;;4.60;99.90;;;;;;4922769;28;20206;-61
2021/12/02 08:30:21;;;;;;;5.03;2.40;;;4.60;99.90;;;;;;4934084;28;20219;-61
2021/12/02 08:32:49;;;;;;;3.90;2.20;;;4.70;99.90;;;;;;4938024;28;20198;-61
2021/12/02 08:35:17;;;;;;;4.33;2.27;;;4.60;99.90;;;;;;4915877;28;20310;-61
2021/12/02 08:37:47;;;;;;;3.43;2.00;;;4.60;99.90;;;;;;4923608;29;20614;-60
2021/12/02 08:40:17;;;;;;;3.23;2.00;;;4.60;99.90;;;;;;4937670;28;20245;-60
2021/12/02 08:42:46;;;;;;;3.27;2.47;;;4.60;99.90;;;;;;4921383;28;20195;-60
2021/12/02 08:45:15;;;;;;;5.40;4.90;;;4.60;99.90;;;;;;4921649;28;20199;-61
2021/12/02 08:47:45;;;;;;;4.60;4.20;;;4.60;99.90;;;;;;4932244;28;20253;-61
2021/12/02 08:50:18;;;;;;;2.93;2.30;;;4.60;99.90;;;;;;4936989;28;20267;-60
2021/12/02 08:52:47;;;;;;;3.80;2.03;;;4.70;99.90;;;;;;4932450;28;20211;-61
2021/12/02 08:55:15;;;;;;;4.27;2.00;;;4.70;99.90;;;;;;4934649;28;20699;-61
2021/12/02 08:57:47;;;;;;;3.30;1.70;;;4.70;99.90;;;;;;4924809;28;20585;-61
2021/12/02 09:00:17;;;;;;;2.97;1.90;;;4.90;99.90;;;;;;4922151;28;20284;-60
2021/12/02 09:02:45;;;;;;;4.37;2.27;;;5.20;99.40;;;;;;4935058;28;20198;-60
2021/12/02 09:05:14;;;;;;;2.73;1.73;;;5.20;7.50;;;;;;4920964;29;20711;-60
2021/12/02 09:07:42;;;;;;;3.23;1.83;;;5.40;1.00;;;;;;4917620;29;20233;-61
2021/12/02 09:10:10;;;;;;;2.53;1.73;;;5.70;1.00;;;;;;4915507;29;20235;-60
2021/12/02 09:12:37;;;;;;;3.70;2.20;;;5.70;1.00;;;;;;4918245;29;20247;-61
2021/12/02 09:15:08;;;;;;;4.70;1.77;;;5.90;1.00;;;;;;4917184;29;20195;-60
2021/12/02 09:17:36;;;;;;;10.20;1.90;;;6.70;1.00;;;;;;4931221;29;20187;-60
2021/12/02 09:20:08;;;;;;;1.30;1.10;;;8.50;99.90;;;;;;4934618;29;20273;-60
2021/12/02 09:22:35;;;;;;;1.77;1.13;;;11.30;1.00;;;;;;4920667;28;20250;-60
2021/12/02 09:25:04;;;;;;;2.60;1.30;;;10.90;99.90;;;;;;4929663;29;20195;-60
2021/12/02 09:27:31;;;;;;;7.57;1.67;;;9.50;1.00;;;;;;4933524;28;20251;-60
2021/12/02 09:29:59;;;;;;;2.50;1.30;;;9.00;1.00;;;;;;4932330;28;20449;-60
2021/12/02 09:32:27;;;;;;;2.40;1.60;;;11.30;99.90;;;;;;4934527;29;20207;-60
2021/12/02 09:34:54;;;;;;;1.90;1.63;;;11.50;99.90;;;;;;4916917;28;20238;-60
2021/12/02 09:37:21;;;;;;;1.47;1.37;;;9.60;1.00;;;;;;4932328;29;20259;-60
2021/12/02 09:39:48;;;;;;;5.97;1.53;;;11.30;1.00;;;;;;4931704;29;20230;-61
2021/12/02 09:42:16;;;;;;;4.03;1.63;;;15.90;99.90;;;;;;4932767;29;20235;-60
2021/12/02 09:44:58;;;;;;;3.17;1.37;;;15.00;97.70;;;;;;4917543;29;22904;-61
2021/12/02 09:47:30;;;;;;;3.43;1.60;;;11.80;99.90;;;;;;4916506;29;20208;-60
2021/12/02 09:50:03;;;;;;;7.40;3.27;;;10.50;1.00;;;;;;4934233;29;20262;-60
2021/12/02 09:52:35;;;;;;;2.50;1.87;;;13.00;99.90;;;;;;4934509;29;20195;-61
2021/12/02 09:55:09;;;;;;;3.50;1.77;;;15.50;99.90;;;;;;4932627;29;20203;-61
2021/12/02 09:57:40;;;;;;;3.03;2.03;;;18.50;93.30;;;;;;4933872;29;20235;-61
2021/12/02 10:00:15;;;;;;;3.50;1.33;;;15.80;70.60;;;;;;4924967;29;20200;-61
2021/12/02 10:02:51;;;;;;;2.03;1.37;;;11.30;99.90;;;;;;4921595;29;20242;-60
2021/12/02 10:05:27;;;;;;;4.20;1.80;;;9.30;1.00;;;;;;4936132;29;20240;-61
2021/12/02 10:08:00;;;;;;;1.97;1.50;;;8.30;1.00;;;;;;4911404;29;20247;-60
2021/12/02 10:10:31;;;;;;;2.40;1.50;;;8.20;1.00;;;;;;4937406;29;20226;-60
2021/12/02 10:13:29;;;;;;;5.17;3.70;;;8.20;55.20;;;;;;4911411;28;20199;-60
2021/12/02 10:16:41;;;;;;;4.73;2.77;;;9.60;1.00;;;;;;4938506;29;20195;-60
2021/12/02 10:19:13;;;;;;;3.87;1.73;;;9.70;1.00;;;;;;4938094;29;20199;-60
2021/12/02 10:21:46;;;;;;;1.47;1.37;;;7.90;51.90;;;;;;4934026;29;23480;-60
2021/12/02 10:24:19;;;;;;;3.07;1.90;;;7.30;99.90;;;;;;4936606;29;20203;-60
2021/12/02 10:26:59;;;;;;;3.10;1.60;;;6.50;1.00;;;;;;4935896;28;20199;-61
2021/12/02 10:29:47;;;;;;;2.07;1.80;;;6.10;1.00;;;;;;4937135;29;20756;-61
2021/12/02 10:32:19;;;;;;;1.77;1.50;;;5.80;1.00;;;;;;4921133;29;21855;-61
2021/12/02 10:34:46;;;;;;;3.93;1.30;;;5.30;24.90;;;;;;4923096;29;20225;-61
2021/12/02 10:37:13;;;;;;;2.77;2.00;;;5.30;99.90;;;;;;4937573;28;20233;-62
2021/12/02 10:39:52;;;;;;;2.23;2.03;;;5.20;89.30;;;;;;4922067;29;20199;-62
2021/12/02 10:42:21;;;;;;;6.93;5.57;;;5.30;99.90;;;;;;4935605;28;20285;-62
2021/12/02 10:44:49;;;;;;;4.00;2.90;;;5.30;99.90;;;;;;4938099;29;20207;-62
2021/12/02 10:47:19;;;;;;;5.27;3.23;;;5.20;99.90;;;;;;4923212;29;20265;-62
2021/12/02 10:49:50;;;;;;;5.40;2.77;;;5.10;99.90;;;;;;4938246;29;20198;-62
2021/12/02 10:52:22;;;;;;;4.27;2.60;;;5.10;99.90;;;;;;4925721;29;20770;-62
2021/12/02 10:54:56;;;;;;;5.93;3.10;;;5.10;99.90;;;;;;4939747;29;20233;-62
2021/12/02 10:57:26;;;;;;;2.97;2.30;;;5.10;99.90;;;;;;4930400;29;20207;-62
2021/12/02 11:00:03;;;;;;;5.13;2.80;;;5.10;99.90;;;;;;4927313;29;20214;-62
2021/12/02 11:02:35;;;;;;;4.50;2.50;;;5.10;99.90;;;;;;4937696;29;20199;-62
2021/12/02 11:05:46;;;;;;;3.30;2.30;;;5.10;99.90;;;;;;4923031;29;20246;-62
2021/12/02 11:08:08;;;;;;;3.10;2.20;;;5.00;99.90;;;;;;4933089;29;20741;-61
2021/12/02 11:10:43;;;;;;;6.73;3.40;;;4.90;99.90;;;;;;4936388;29;20746;-62
2021/12/02 11:13:18;;;;;;;3.17;2.80;;;5.00;99.90;;;;;;4937234;29;20689;-62
2021/12/02 11:15:45;;;;;;;3.87;2.10;;;5.00;99.90;;;;;;4942696;29;20259;-62
2021/12/02 11:18:15;;;;;;;4.83;2.27;;;5.10;99.90;;;;;;4944169;29;20291;-61
2021/12/02 11:20:47;;;;;;;4.07;2.37;;;5.00;55.00;;;;;;4942250;29;20667;-61
2021/12/02 11:23:20;;;;;;;2.30;1.73;;;4.90;12.70;;;;;;4943991;29;20195;-62
2021/12/02 11:25:54;;;;;;;3.33;2.23;;;4.80;99.90;;;;;;4922549;29;20195;-61
2021/12/02 11:28:24;;;;;;;3.20;2.27;;;4.80;99.90;;;;;;4926453;29;20214;-62
2021/12/02 11:30:52;;;;;;;4.83;2.63;;;4.80;99.90;;;;;;4923193;29;20212;-61
2021/12/02 11:33:35;;;;;;;4.73;2.20;;;4.80;99.90;;;;;;4943122;29;20298;-61
2021/12/02 11:36:04;;;;;;;2.33;2.13;;;4.60;99.90;;;;;;4914380;29;20659;-61
2021/12/02 11:38:32;;;;;;;5.13;2.40;;;4.50;99.90;;;;;;4942775;29;20196;-62
2021/12/02 11:41:04;;;;;;;2.70;2.47;;;4.50;99.90;;;;;;4942205;29;20634;-62
2021/12/02 11:43:36;;;;;;;3.37;2.80;;;4.60;99.90;;;;;;4942417;29;20639;-62
2021/12/02 11:46:06;;;;;;;3.47;2.40;;;4.70;99.90;;;;;;4940499;29;20614;-62
2021/12/02 11:48:39;;;;;;;3.03;2.47;;;4.80;99.90;;;;;;4940216;29;20211;-62
2021/12/02 11:51:26;;;;;;;2.63;2.17;;;4.80;99.90;;;;;;4924936;29;20542;-62
2021/12/02 11:53:53;;;;;;;2.40;2.10;;;4.70;99.90;;;;;;4942632;29;20228;-62
2021/12/02 11:56:22;;;;;;;2.20;1.93;;;4.90;99.90;;;;;;4941450;29;20870;-62
2021/12/02 11:58:51;;;;;;;2.93;1.83;;;5.00;64.10;;;;;;4942088;29;20200;-62
2021/12/02 12:01:20;;;;;;;3.50;1.70;;;5.00;1.00;;;;;;4941605;29;20206;-62
2021/12/02 12:04:09;;;;;;;2.30;1.87;;;4.90;1.00;;;;;;4923928;29;20275;-62
2021/12/02 12:06:41;;;;;;;2.87;1.53;;;4.90;1.00;;;;;;4943034;29;20199;-62
2021/12/02 12:09:17;;;;;;;2.57;1.70;;;4.90;1.00;;;;;;4925376;29;20207;-62
2021/12/02 12:11:55;;;;;;;2.60;1.70;;;4.90;1.00;;;;;;4931826;29;20223;-62
2021/12/02 12:14:41;;;;;;;1.83;1.70;;;5.00;1.00;;;;;;4941410;29;20219;-62
2021/12/02 12:17:13;;;;;;;2.57;1.70;;;5.00;1.00;;;;;;4937650;29;20202;-62
2021/12/02 12:19:45;;;;;;;4.40;1.90;;;4.80;1.00;;;;;;4937420;29;20234;-62
2021/12/02 12:22:28;;;;;;;1.40;1.30;;;4.70;1.00;;;;;;4921258;29;20255;-62
2021/12/02 12:24:57;;;;;;;1.87;1.30;;;4.80;1.00;;;;;;4935759;29;20200;-62
2021/12/02 12:27:29;;;;;;;2.10;1.30;;;4.70;1.00;;;;;;4938157;28;20203;-62
2021/12/02 12:30:20;;;;;;;1.70;1.37;;;4.70;1.00;;;;;;4935406;28;20206;-62
2021/12/02 12:35:32;;;;;;;1.23;1.10;;;5.00;1.00;;;;;;4941007;29;20245;-62
2021/12/02 12:38:03;;;;;;;2.10;1.63;;;4.90;1.00;;;;;;4942872;29;20194;-62
2021/12/02 12:40:42;;;;;;;2.63;1.20;;;4.90;1.00;;;;;;4941203;29;20200;-62
2021/12/02 12:43:08;;;;;;;1.87;1.40;;;4.80;1.00;;;;;;4924563;29;20643;-62
2021/12/02 12:45:42;;;;;;;1.97;1.50;;;4.90;1.00;;;;;;4941701;29;20222;-62
2021/12/02 12:48:18;;;;;;;1.80;1.50;;;4.90;1.00;;;;;;4940614;29;20195;-62
2021/12/02 12:50:47;;;;;;;3.67;2.37;;;4.90;1.00;;;;;;4941381;29;20206;-63
2021/12/02 12:53:16;;;;;;;5.20;2.97;;;4.80;99.90;;;;;;4941521;29;20278;-62
2021/12/02 12:55:52;;;;;;;2.80;2.50;;;4.70;99.90;;;;;;4939894;29;20290;-63
2021/12/02 12:58:21;;;;;;;3.50;2.43;;;4.60;99.90;;;;;;4932174;29;20194;-62
2021/12/02 13:00:50;;;;;;;4.73;3.33;;;4.50;99.90;;;;;;4915811;29;20238;-62
2021/12/02 13:03:25;;;;;;;4.73;4.23;;;4.50;99.90;;;;;;4940958;29;20223;-62
2021/12/02 13:06:07;;;;;;;3.50;2.83;;;4.40;99.90;;;;;;4908759;29;20213;-62
2021/12/02 13:08:56;;;;;;;4.03;3.63;;;4.40;1.00;;;;;;4906014;29;20198;-62
2021/12/02 13:11:26;;;;;;;4.20;3.00;;;4.40;1.00;;;;;;4941800;29;20223;-62
2021/12/02 13:13:55;;;;;;;3.07;2.77;;;4.50;1.00;;;;;;4930887;29;20278;-63
2021/12/02 13:16:22;;;;;;;3.57;3.13;;;4.50;1.00;;;;;;4922448;29;20816;-62
2021/12/02 13:18:54;;;;;;;3.97;3.20;;;4.60;1.00;;;;;;4941293;29;20207;-62
2021/12/02 13:21:30;;;;;;;5.83;3.60;;;4.60;1.00;;;;;;4924041;29;20210;-62
2021/12/02 13:24:19;;;;;;;4.33;2.87;;;4.60;1.00;;;;;;4940834;29;20199;-62
2021/12/02 13:27:03;;;;;;;3.00;2.60;;;4.70;1.00;;;;;;4939518;28;20203;-62
2021/12/02 13:29:35;;;;;;;4.97;2.50;;;4.60;1.00;;;;;;4938903;29;20207;-62
2021/12/02 13:32:10;;;;;;;2.80;2.33;;;4.60;1.00;;;;;;4940541;29;20501;-64
2021/12/02 13:34:37;;;;;;;4.10;2.87;;;4.50;1.00;;;;;;4921767;28;21816;-62
2021/12/02 13:37:06;;;;;;;3.80;3.10;;;4.50;1.00;;;;;;4925069;29;20203;-62
2021/12/02 13:39:34;;;;;;;3.90;3.10;;;4.50;1.00;;;;;;4919835;29;20226;-62